Time;durP1;ratioP1;P1;durP2;ratioP2;P2;SDS_P1;SDS_P2;PMS_P1;PMS_P2;Temp;Humidity;BMP_temperature;BMP_pressure;BME280_temperature;BME280_humidity;BME280_pressure;Samples;Min_cycle;Max_cycle;Signal;HPM_P1;HPM_P2
2023/08/28 00:01:39;;;;;;;18.03;17.23;;;16.70;99.90;;;;;;4934223;29;20500;-72
2023/08/28 00:04:06;;;;;;;17.73;16.93;;;16.70;99.90;;;;;;4934469;29;20457;-73
2023/08/28 00:06:33;;;;;;;17.53;16.60;;;16.70;99.90;;;;;;4934323;29;20967;-73
2023/08/28 00:09:01;;;;;;;17.73;16.93;;;16.80;99.90;;;;;;4934458;29;20479;-72
2023/08/28 00:11:28;;;;;;;18.77;17.50;;;16.80;99.90;;;;;;4934444;29;20910;-73
2023/08/28 00:13:54;;;;;;;17.73;17.03;;;16.80;99.90;;;;;;4934460;29;20446;-75
2023/08/28 00:16:21;;;;;;;18.00;17.13;;;16.80;99.90;;;;;;4934309;29;20449;-74
2023/08/28 00:18:48;;;;;;;18.43;17.60;;;16.80;99.90;;;;;;4934294;29;20480;-74
2023/08/28 00:21:15;;;;;;;18.37;17.40;;;16.70;99.90;;;;;;4934206;29;20521;-73
2023/08/28 00:23:41;;;;;;;18.43;17.57;;;16.70;99.90;;;;;;4934090;29;20465;-72
2023/08/28 00:26:09;;;;;;;18.73;17.93;;;16.70;99.90;;;;;;4934027;29;20464;-72
2023/08/28 00:28:36;;;;;;;19.80;18.50;;;16.70;99.90;;;;;;4934036;29;20445;-71
2023/08/28 00:31:04;;;;;;;18.73;17.67;;;16.70;99.90;;;;;;4933896;29;20488;-71
2023/08/28 00:33:30;;;;;;;19.83;18.73;;;16.70;99.90;;;;;;4934082;29;20456;-71
2023/08/28 00:35:57;;;;;;;19.73;18.73;;;16.70;99.90;;;;;;4933970;29;20462;-72
2023/08/28 00:38:24;;;;;;;19.67;18.63;;;16.60;99.90;;;;;;4933937;29;20450;-72
2023/08/28 00:40:50;;;;;;;19.77;18.77;;;16.50;99.90;;;;;;4933811;29;20692;-72
2023/08/28 00:43:18;;;;;;;20.00;19.07;;;16.50;99.90;;;;;;4933790;29;20449;-71
2023/08/28 00:45:45;;;;;;;19.53;18.70;;;16.50;99.90;;;;;;4933996;29;20454;-71
2023/08/28 00:48:16;;;;;;;19.97;18.77;;;16.40;99.90;;;;;;4933786;29;20952;-72
2023/08/28 00:50:44;;;;;;;40.73;19.67;;;16.40;99.90;;;;;;4933848;29;20449;-73
2023/08/28 00:53:11;;;;;;;19.27;18.33;;;16.40;99.90;;;;;;4935126;29;20470;-74
2023/08/28 00:55:38;;;;;;;18.40;17.60;;;16.40;99.90;;;;;;4941846;28;20481;-71
2023/08/28 00:58:05;;;;;;;18.37;17.57;;;16.40;99.90;;;;;;4944807;29;20460;-73
2023/08/28 01:00:33;;;;;;;19.40;18.20;;;16.40;99.90;;;;;;4952742;28;20459;-71
2023/08/28 01:03:00;;;;;;;19.77;18.57;;;16.30;99.90;;;;;;4939564;28;20493;-74
2023/08/28 01:05:36;;;;;;;19.67;18.43;;;16.20;99.90;;;;;;4933650;29;20449;-71
2023/08/28 01:08:11;;;;;;;19.17;18.33;;;16.10;99.90;;;;;;4933040;29;20452;-73
2023/08/28 01:10:44;;;;;;;18.60;17.70;;;16.10;99.90;;;;;;4933547;29;20456;-74
2023/08/28 01:13:17;;;;;;;20.43;19.33;;;16.10;99.90;;;;;;4951113;29;20444;-74
2023/08/28 01:15:46;;;;;;;19.40;18.50;;;16.00;99.90;;;;;;4952733;28;20827;-73
2023/08/28 01:18:14;;;;;;;19.27;18.27;;;16.10;99.90;;;;;;4952657;28;20479;-74
2023/08/28 01:20:42;;;;;;;20.83;19.73;;;16.10;99.90;;;;;;4952669;28;20452;-73
2023/08/28 01:26:28;;;;;;;20.40;19.30;;;16.20;99.90;;;;;;4950109;28;20436;-74
2023/08/28 01:28:55;;;;;;;20.00;19.00;;;16.30;99.90;;;;;;4950195;28;20440;-73
2023/08/28 01:31:22;;;;;;;20.63;19.37;;;16.30;99.90;;;;;;4950062;28;20468;-73
2023/08/28 01:33:51;;;;;;;19.50;18.30;;;16.20;99.90;;;;;;4949947;28;20559;-73
2023/08/28 01:36:26;;;;;;;19.23;18.23;;;16.20;99.90;;;;;;4950015;28;20456;-73
2023/08/28 01:38:58;;;;;;;19.30;18.40;;;16.20;99.90;;;;;;4950069;28;20970;-73
2023/08/28 01:41:26;;;;;;;19.27;18.37;;;16.20;99.90;;;;;;4949950;28;20519;-73
2023/08/28 01:43:59;;;;;;;19.77;18.40;;;16.20;99.90;;;;;;4950066;28;20460;-73
2023/08/28 01:46:26;;;;;;;19.70;18.70;;;16.20;99.90;;;;;;4950145;28;20452;-72
2023/08/28 01:48:53;;;;;;;19.57;18.07;;;16.20;99.90;;;;;;4949968;29;20978;-73
2023/08/28 01:51:20;;;;;;;19.70;18.03;;;16.20;99.90;;;;;;4949911;28;20460;-73
2023/08/28 01:53:47;;;;;;;18.37;17.47;;;16.20;99.90;;;;;;4949928;28;20455;-73
2023/08/28 01:56:19;;;;;;;18.53;17.70;;;16.20;99.90;;;;;;4950436;28;20951;-73
2023/08/28 01:58:47;;;;;;;20.87;19.80;;;16.30;99.90;;;;;;4952229;28;20970;-73
2023/08/28 02:01:16;;;;;;;19.37;18.50;;;16.30;99.90;;;;;;4952304;28;20449;-73
2023/08/28 02:03:43;;;;;;;20.53;19.13;;;16.30;99.90;;;;;;4952256;28;20448;-72
2023/08/28 02:06:10;;;;;;;19.57;18.47;;;16.30;99.90;;;;;;4947399;28;20453;-73
2023/08/28 02:08:37;;;;;;;18.83;17.93;;;16.40;99.90;;;;;;4933076;29;20445;-73
2023/08/28 02:11:04;;;;;;;19.30;18.50;;;16.40;99.90;;;;;;4933069;29;20449;-73
2023/08/28 02:13:31;;;;;;;18.87;18.03;;;16.40;99.90;;;;;;4933052;29;20971;-72
2023/08/28 02:15:57;;;;;;;19.80;18.70;;;16.40;99.90;;;;;;4933077;29;20462;-75
2023/08/28 02:18:25;;;;;;;19.93;18.77;;;16.50;99.90;;;;;;4933315;29;20469;-73
2023/08/28 02:20:53;;;;;;;20.27;19.20;;;16.50;99.90;;;;;;4936291;29;20453;-73
2023/08/28 02:23:19;;;;;;;19.07;18.33;;;16.40;99.90;;;;;;4936235;29;20489;-74
2023/08/28 02:25:48;;;;;;;19.70;18.90;;;16.20;99.90;;;;;;4936308;29;20457;-73
2023/08/28 02:28:15;;;;;;;20.67;19.67;;;16.10;99.90;;;;;;4936445;29;20446;-74
2023/08/28 02:30:41;;;;;;;20.70;19.80;;;16.10;99.90;;;;;;4939233;28;20488;-74
2023/08/28 02:33:08;;;;;;;21.00;19.90;;;16.10;99.90;;;;;;4944947;28;20461;-74
2023/08/28 02:35:36;;;;;;;20.70;19.50;;;16.00;99.90;;;;;;4949081;28;20464;-73
2023/08/28 02:38:03;;;;;;;22.00;20.40;;;15.80;99.90;;;;;;4947437;28;20872;-74
2023/08/28 02:40:30;;;;;;;21.13;20.13;;;15.80;99.90;;;;;;4944515;28;20449;-73
2023/08/28 02:43:05;;;;;;;20.80;19.90;;;15.70;99.90;;;;;;4941138;29;20489;-73
2023/08/28 02:45:32;;;;;;;20.47;19.40;;;15.50;99.90;;;;;;4916925;29;20450;-76
2023/08/28 02:47:59;;;;;;;21.20;20.20;;;15.60;99.90;;;;;;4921691;29;20461;-73
2023/08/28 02:50:25;;;;;;;21.23;20.13;;;15.50;99.90;;;;;;4939976;28;20956;-73
2023/08/28 02:52:53;;;;;;;20.67;19.77;;;15.60;99.90;;;;;;4940860;29;20454;-74
2023/08/28 02:55:22;;;;;;;21.93;20.83;;;15.50;99.90;;;;;;4940640;29;20462;-73
2023/08/28 02:57:48;;;;;;;22.20;20.90;;;15.60;99.90;;;;;;4946724;28;20827;-73
2023/08/28 03:00:16;;;;;;;21.40;19.93;;;15.60;99.90;;;;;;4944111;28;20815;-73
2023/08/28 03:02:43;;;;;;;21.10;19.90;;;15.70;99.90;;;;;;4940482;29;20497;-74
2023/08/28 03:05:10;;;;;;;20.93;19.77;;;15.60;99.90;;;;;;4940399;28;20467;-74
2023/08/28 03:07:38;;;;;;;21.13;20.13;;;15.40;99.90;;;;;;4946016;28;20457;-73
2023/08/28 03:10:08;;;;;;;20.93;20.00;;;15.50;99.90;;;;;;4944120;28;20453;-73
2023/08/28 03:12:35;;;;;;;21.90;20.80;;;15.50;99.90;;;;;;4940247;28;20469;-73
2023/08/28 03:15:02;;;;;;;21.90;20.70;;;15.60;99.90;;;;;;4948590;28;20462;-73
2023/08/28 03:17:28;;;;;;;21.23;20.20;;;15.60;99.90;;;;;;4943745;28;20469;-73
2023/08/28 03:19:55;;;;;;;21.23;20.23;;;15.50;99.90;;;;;;4943635;28;20461;-74
2023/08/28 03:22:22;;;;;;;21.50;20.40;;;15.40;99.90;;;;;;4948166;28;20488;-75
2023/08/28 03:24:49;;;;;;;21.63;20.63;;;15.50;99.90;;;;;;4941529;28;20480;-73
2023/08/28 03:27:17;;;;;;;21.53;20.53;;;15.60;99.90;;;;;;4944955;28;20454;-72
2023/08/28 03:29:43;;;;;;;22.00;20.90;;;15.60;99.90;;;;;;4944967;28;20468;-73
2023/08/28 03:32:10;;;;;;;21.03;20.03;;;15.60;99.90;;;;;;4935094;29;20452;-73
2023/08/28 03:34:36;;;;;;;21.87;20.90;;;15.60;99.90;;;;;;4934948;29;20453;-74
2023/08/28 03:37:03;;;;;;;22.13;21.03;;;15.60;99.90;;;;;;4940920;28;20469;-73
2023/08/28 03:39:30;;;;;;;22.43;21.37;;;15.50;99.90;;;;;;4943627;28;20457;-73
2023/08/28 03:41:57;;;;;;;22.20;21.10;;;15.50;99.90;;;;;;4944571;28;20462;-74
2023/08/28 03:44:25;;;;;;;21.90;20.87;;;15.50;99.90;;;;;;4932948;29;21144;-74
2023/08/28 03:46:52;;;;;;;22.20;21.00;;;15.50;99.90;;;;;;4943077;28;20456;-73
2023/08/28 03:49:19;;;;;;;21.53;20.43;;;15.60;99.90;;;;;;4938510;29;20472;-73
2023/08/28 03:51:45;;;;;;;21.97;20.87;;;15.60;99.90;;;;;;4945608;28;20453;-74
2023/08/28 03:54:12;;;;;;;21.67;20.43;;;15.60;99.90;;;;;;4940565;28;20457;-73
2023/08/28 03:56:40;;;;;;;21.10;19.80;;;15.70;99.90;;;;;;4945108;28;20480;-73
2023/08/28 03:59:07;;;;;;;21.87;20.80;;;15.70;99.90;;;;;;4947384;28;20465;-73
2023/08/28 04:01:35;;;;;;;22.70;21.57;;;15.60;99.90;;;;;;4941465;28;20460;-74
2023/08/28 04:04:01;;;;;;;21.60;20.60;;;15.70;99.90;;;;;;4944773;28;21255;-74
2023/08/28 04:06:28;;;;;;;22.00;20.83;;;15.70;99.90;;;;;;4953638;28;20449;-75
2023/08/28 04:08:55;;;;;;;22.00;21.00;;;15.80;99.90;;;;;;4953451;28;20452;-74
2023/08/28 04:11:21;;;;;;;22.10;21.00;;;15.80;99.90;;;;;;4948561;28;20458;-74
2023/08/28 04:13:48;;;;;;;23.27;21.77;;;15.90;99.90;;;;;;4943374;28;20465;-74
2023/08/28 04:16:18;;;;;;;24.17;22.77;;;15.80;99.90;;;;;;4944393;28;20457;-75
2023/08/28 04:18:46;;;;;;;23.80;22.40;;;15.80;99.90;;;;;;4947326;28;20895;-75
2023/08/28 04:21:13;;;;;;;23.60;22.30;;;15.70;99.90;;;;;;4930556;28;20456;-75
2023/08/28 04:23:40;;;;;;;23.30;22.00;;;15.80;99.90;;;;;;4944894;28;20862;-74
2023/08/28 04:26:06;;;;;;;24.73;23.43;;;15.70;99.90;;;;;;4943385;28;20582;-75
2023/08/28 04:28:33;;;;;;;23.27;22.07;;;15.70;99.90;;;;;;4938900;29;20469;-75
2023/08/28 04:31:00;;;;;;;24.67;23.20;;;15.70;99.90;;;;;;4945782;28;20500;-74
2023/08/28 04:33:27;;;;;;;25.13;23.53;;;15.70;99.90;;;;;;4942418;28;20466;-75
2023/08/28 04:35:55;;;;;;;24.87;22.80;;;15.70;99.90;;;;;;4942887;29;20460;-74
2023/08/28 04:38:22;;;;;;;22.40;21.10;;;15.70;99.90;;;;;;4946745;28;20464;-74
2023/08/28 04:40:49;;;;;;;24.07;22.87;;;15.60;99.90;;;;;;4939663;28;20456;-73
2023/08/28 04:43:15;;;;;;;23.00;21.90;;;15.60;99.90;;;;;;4944601;28;20852;-74
2023/08/28 04:45:42;;;;;;;23.40;22.20;;;15.60;99.90;;;;;;4953329;28;20464;-74
2023/08/28 04:48:09;;;;;;;23.37;22.27;;;15.70;99.90;;;;;;4952757;28;21026;-73
2023/08/28 04:50:35;;;;;;;24.03;22.73;;;15.60;99.90;;;;;;4952939;28;20453;-73
2023/08/28 04:53:04;;;;;;;23.87;22.57;;;15.70;99.90;;;;;;4952826;28;20507;-72
2023/08/28 04:55:30;;;;;;;23.90;22.60;;;15.60;99.90;;;;;;4952750;28;20954;-73
2023/08/28 04:57:57;;;;;;;23.93;22.63;;;15.70;99.90;;;;;;4952747;28;20464;-73
2023/08/28 05:00:24;;;;;;;23.40;22.10;;;15.70;99.90;;;;;;4952390;28;20555;-73
2023/08/28 05:02:50;;;;;;;23.27;22.07;;;15.60;99.90;;;;;;4952510;28;20492;-73
2023/08/28 05:05:17;;;;;;;23.17;22.07;;;15.60;99.90;;;;;;4952258;28;20479;-73
2023/08/28 05:07:44;;;;;;;23.33;22.03;;;15.70;99.90;;;;;;4952464;28;20459;-73
2023/08/28 05:10:12;;;;;;;23.47;22.27;;;15.70;99.90;;;;;;4952584;28;20449;-73
2023/08/28 05:12:38;;;;;;;22.77;21.67;;;15.70;99.90;;;;;;4952536;28;20456;-73
2023/08/28 05:15:06;;;;;;;23.30;21.53;;;15.70;99.90;;;;;;4952454;28;20457;-73
2023/08/28 05:17:33;;;;;;;22.60;21.30;;;15.80;99.90;;;;;;4952528;28;20959;-73
2023/08/28 05:20:00;;;;;;;21.90;20.50;;;15.80;99.90;;;;;;4952568;28;20444;-73
2023/08/28 05:22:26;;;;;;;22.40;21.20;;;15.90;99.90;;;;;;4952427;28;20546;-73
2023/08/28 05:24:53;;;;;;;23.27;21.97;;;15.90;99.90;;;;;;4952483;28;20444;-73
2023/08/28 05:27:21;;;;;;;22.00;20.90;;;15.80;99.90;;;;;;4952385;28;20844;-72
2023/08/28 05:29:53;;;;;;;22.97;21.60;;;15.90;99.90;;;;;;4952198;28;20484;-73
2023/08/28 05:32:19;;;;;;;22.27;21.17;;;15.90;99.90;;;;;;4952243;28;20480;-73
2023/08/28 05:34:46;;;;;;;21.93;20.67;;;16.00;99.90;;;;;;4952249;28;20448;-73
2023/08/28 05:37:13;;;;;;;22.30;21.20;;;16.00;99.90;;;;;;4952569;28;20457;-73
2023/08/28 05:39:39;;;;;;;23.70;22.40;;;16.00;99.90;;;;;;4952456;28;20449;-73
2023/08/28 05:42:06;;;;;;;23.87;22.70;;;16.10;99.90;;;;;;4952518;28;20459;-73
2023/08/28 05:44:34;;;;;;;23.23;21.83;;;16.10;99.90;;;;;;4951444;28;20489;-73
2023/08/28 05:47:01;;;;;;;24.73;23.53;;;16.10;99.90;;;;;;4940740;28;20464;-73
2023/08/28 05:49:28;;;;;;;24.10;22.80;;;16.10;99.90;;;;;;4938686;28;20489;-73
2023/08/28 05:51:55;;;;;;;24.77;23.37;;;16.10;99.90;;;;;;4933148;29;20449;-73
2023/08/28 05:54:22;;;;;;;24.53;23.10;;;16.10;99.90;;;;;;4928026;29;20880;-74
2023/08/28 05:56:48;;;;;;;24.90;23.50;;;16.10;99.90;;;;;;4942503;28;20457;-73
2023/08/28 05:59:15;;;;;;;25.47;23.87;;;16.10;99.90;;;;;;4948779;28;20461;-73
2023/08/28 06:01:43;;;;;;;24.90;23.33;;;16.20;99.90;;;;;;4939832;28;20461;-74
2023/08/28 06:04:10;;;;;;;25.07;23.47;;;16.20;99.90;;;;;;4944011;28;21009;-74
2023/08/28 06:06:38;;;;;;;25.73;24.30;;;16.20;99.90;;;;;;4944692;28;20879;-73
2023/08/28 06:09:05;;;;;;;26.17;24.67;;;16.00;99.90;;;;;;4936189;28;20481;-74
2023/08/28 06:11:32;;;;;;;26.37;24.87;;;16.20;99.90;;;;;;4952471;28;20483;-73
2023/08/28 06:14:00;;;;;;;25.83;24.53;;;16.20;99.90;;;;;;4945721;29;20457;-74
2023/08/28 06:16:27;;;;;;;25.47;23.77;;;16.20;99.90;;;;;;4944901;28;20456;-74
2023/08/28 06:18:55;;;;;;;25.93;24.00;;;16.30;99.90;;;;;;4946352;28;20464;-74
2023/08/28 06:21:22;;;;;;;25.63;23.70;;;16.30;99.90;;;;;;4947065;29;21155;-74
2023/08/28 06:23:48;;;;;;;25.90;24.30;;;16.40;99.90;;;;;;4941202;28;20860;-74
2023/08/28 06:26:15;;;;;;;25.47;24.03;;;16.50;99.90;;;;;;4945763;28;20471;-74
2023/08/28 06:28:42;;;;;;;26.20;24.30;;;16.50;99.90;;;;;;4946383;28;20471;-74
2023/08/28 06:31:09;;;;;;;25.80;24.00;;;16.40;99.90;;;;;;4946316;28;20480;-74
2023/08/28 06:33:35;;;;;;;24.20;22.60;;;16.60;99.90;;;;;;4944485;29;20460;-74
2023/08/28 06:36:04;;;;;;;25.27;23.43;;;16.70;99.90;;;;;;4955074;28;20459;-74
2023/08/28 06:38:31;;;;;;;24.60;23.20;;;16.70;99.90;;;;;;4955295;28;20464;-74
2023/08/28 06:40:57;;;;;;;25.70;24.10;;;16.80;99.90;;;;;;4955360;28;20453;-73
2023/08/28 06:43:24;;;;;;;23.13;21.93;;;16.90;99.90;;;;;;4955082;28;20492;-74
2023/08/28 06:45:50;;;;;;;23.47;22.20;;;16.90;99.90;;;;;;4955122;28;20452;-73
2023/08/28 06:48:17;;;;;;;24.00;22.70;;;17.00;99.90;;;;;;4954953;28;20456;-73
2023/08/28 06:50:44;;;;;;;24.20;22.87;;;17.00;99.90;;;;;;4955163;28;20463;-74
2023/08/28 06:53:12;;;;;;;22.97;21.77;;;17.00;99.90;;;;;;4954907;28;21113;-73
2023/08/28 06:55:39;;;;;;;23.03;21.83;;;17.00;99.90;;;;;;4954896;28;20457;-73
2023/08/28 06:58:05;;;;;;;23.50;22.20;;;17.10;99.90;;;;;;4954889;28;20462;-73
2023/08/28 07:00:32;;;;;;;22.57;21.57;;;17.20;99.90;;;;;;4954766;28;20487;-73
2023/08/28 07:02:59;;;;;;;23.70;22.40;;;17.10;99.90;;;;;;4954895;28;20457;-78
2023/08/28 07:05:25;;;;;;;23.43;22.23;;;17.00;99.90;;;;;;4944209;28;20469;-73
2023/08/28 07:07:52;;;;;;;23.30;22.10;;;17.00;99.90;;;;;;4942482;29;20464;-73
2023/08/28 07:10:20;;;;;;;22.57;21.47;;;17.10;99.90;;;;;;4942586;28;20888;-73
2023/08/28 07:12:47;;;;;;;21.97;20.90;;;17.00;99.90;;;;;;4940214;28;20463;-73
2023/08/28 07:15:50;;;;;;;23.20;21.80;;;17.10;99.90;;;;;;4944140;28;20824;-74
2023/08/28 07:18:17;;;;;;;22.30;21.20;;;17.00;99.90;;;;;;4937324;28;20943;-74
2023/08/28 07:20:44;;;;;;;22.60;21.20;;;17.10;99.90;;;;;;4944133;28;20939;-74
2023/08/28 07:23:11;;;;;;;22.10;21.00;;;17.10;99.90;;;;;;4947996;28;20559;-74
2023/08/28 07:25:39;;;;;;;21.87;20.67;;;17.00;99.90;;;;;;4938715;28;20862;-73
2023/08/28 07:28:07;;;;;;;34.80;21.20;;;16.90;99.90;;;;;;4948687;28;20464;-73
2023/08/28 07:30:33;;;;;;;22.00;20.70;;;16.90;99.90;;;;;;4943928;29;20497;-73
2023/08/28 07:33:00;;;;;;;21.77;20.67;;;17.00;99.90;;;;;;4935142;29;20473;-73
2023/08/28 07:35:29;;;;;;;21.40;20.30;;;17.10;99.90;;;;;;4935160;29;20454;-73
2023/08/28 07:37:56;;;;;;;23.30;22.00;;;17.00;99.90;;;;;;4934943;29;20473;-73
2023/08/28 07:40:23;;;;;;;21.37;20.30;;;17.00;99.90;;;;;;4947759;28;20456;-73
2023/08/28 07:42:51;;;;;;;20.60;19.60;;;17.00;99.90;;;;;;4954001;28;20441;-74
2023/08/28 07:45:17;;;;;;;21.03;19.73;;;17.00;99.90;;;;;;4953872;28;20499;-72
2023/08/28 07:47:44;;;;;;;21.97;20.77;;;17.10;99.90;;;;;;4953888;28;20496;-72
2023/08/28 07:50:11;;;;;;;21.13;20.03;;;17.20;99.90;;;;;;4953893;28;20448;-74
2023/08/28 07:52:38;;;;;;;20.17;19.17;;;17.30;99.90;;;;;;4953857;28;20830;-74
2023/08/28 07:55:06;;;;;;;20.57;19.50;;;17.50;99.90;;;;;;4948553;28;20444;-75
2023/08/28 07:57:34;;;;;;;20.13;18.93;;;17.70;99.90;;;;;;4934361;28;20552;-75
2023/08/28 08:00:06;;;;;;;19.40;18.40;;;18.10;99.90;;;;;;4934525;29;20460;-74
2023/08/28 08:02:32;;;;;;;18.80;17.93;;;18.30;99.90;;;;;;4934473;29;20493;-74
2023/08/28 08:04:59;;;;;;;18.63;17.83;;;18.20;99.90;;;;;;4934520;29;20485;-74
2023/08/28 08:07:26;;;;;;;18.50;17.70;;;18.20;99.90;;;;;;4934388;29;20472;-74
2023/08/28 08:09:53;;;;;;;17.80;17.00;;;18.30;99.90;;;;;;4934164;29;20472;-75
2023/08/28 08:12:20;;;;;;;18.97;17.60;;;18.20;99.90;;;;;;4934373;29;20872;-74
2023/08/28 08:14:46;;;;;;;18.57;17.53;;;18.00;99.90;;;;;;4934401;29;20848;-74
2023/08/28 08:17:14;;;;;;;17.57;16.67;;;18.10;99.90;;;;;;4934368;29;20476;-74
2023/08/28 08:19:41;;;;;;;18.00;17.03;;;18.30;99.90;;;;;;4934239;29;20456;-74
2023/08/28 08:22:08;;;;;;;16.43;15.70;;;18.50;99.90;;;;;;4934236;29;20528;-75
2023/08/28 08:24:34;;;;;;;16.80;15.90;;;18.80;99.90;;;;;;4929168;29;20481;-74
2023/08/28 08:27:01;;;;;;;16.53;15.83;;;18.90;99.90;;;;;;4933995;29;20454;-75
2023/08/28 08:29:28;;;;;;;16.43;15.60;;;18.90;99.90;;;;;;4934154;29;20467;-74
2023/08/28 08:31:55;;;;;;;16.30;15.40;;;19.00;99.90;;;;;;4934000;29;20544;-74
2023/08/28 08:34:23;;;;;;;16.10;15.30;;;19.10;99.90;;;;;;4933920;29;20461;-74
2023/08/28 08:36:49;;;;;;;15.83;15.10;;;19.20;99.90;;;;;;4933952;29;20481;-74
2023/08/28 08:39:16;;;;;;;15.43;14.53;;;19.00;99.90;;;;;;4935483;29;20539;-74
2023/08/28 08:41:43;;;;;;;13.70;13.10;;;19.00;99.90;;;;;;4940781;28;20876;-74
2023/08/28 08:44:10;;;;;;;15.13;14.53;;;18.90;99.90;;;;;;4944528;29;20499;-74
2023/08/28 08:46:37;;;;;;;15.03;14.30;;;18.80;99.90;;;;;;4933771;29;20453;-74
2023/08/28 08:49:06;;;;;;;14.80;13.70;;;18.70;99.90;;;;;;4946056;28;20453;-74
2023/08/28 08:51:37;;;;;;;13.80;13.20;;;18.80;99.90;;;;;;4952922;28;20460;-75
2023/08/28 08:54:10;;;;;;;14.20;13.50;;;19.00;99.90;;;;;;4952868;28;20933;-76
2023/08/28 08:56:41;;;;;;;15.40;14.77;;;18.80;99.90;;;;;;4952798;28;21124;-75
2023/08/28 08:59:09;;;;;;;15.33;14.63;;;18.30;99.90;;;;;;4952763;28;20459;-74
2023/08/28 09:01:37;;;;;;;15.70;14.90;;;18.30;99.90;;;;;;4952821;28;20476;-74
2023/08/28 09:04:07;;;;;;;15.43;14.70;;;18.30;99.90;;;;;;4952654;28;20484;-75
2023/08/28 09:09:51;;;;;;;14.60;13.73;;;18.80;99.90;;;;;;4946250;28;20890;-76
2023/08/28 09:12:18;;;;;;;14.20;13.60;;;19.00;99.90;;;;;;4952336;28;20452;-76
2023/08/28 09:14:45;;;;;;;14.30;13.70;;;19.10;99.90;;;;;;4952522;28;20555;-76
2023/08/28 09:17:11;;;;;;;14.77;13.97;;;19.20;99.90;;;;;;4952375;28;20479;-76
2023/08/28 09:19:38;;;;;;;15.03;14.43;;;19.30;99.90;;;;;;4952341;28;20966;-76
2023/08/28 09:22:05;;;;;;;13.40;12.80;;;19.60;99.90;;;;;;4952319;28;20452;-77
2023/08/28 09:24:32;;;;;;;13.40;12.90;;;19.60;99.90;;;;;;4952399;28;21029;-76
2023/08/28 09:27:03;;;;;;;14.50;13.70;;;19.70;99.90;;;;;;4952757;28;20875;-76
2023/08/28 09:29:30;;;;;;;13.90;13.40;;;19.70;99.90;;;;;;4956523;28;20461;-76
2023/08/28 09:32:03;;;;;;;14.70;14.00;;;19.80;99.90;;;;;;4956321;28;20476;-75
2023/08/28 09:34:38;;;;;;;14.00;13.23;;;20.00;99.90;;;;;;4956351;28;20821;-76
2023/08/28 09:37:07;;;;;;;14.07;13.43;;;20.20;99.90;;;;;;4956197;28;20444;-75
2023/08/28 09:39:34;;;;;;;13.50;12.90;;;20.00;99.90;;;;;;4956146;28;20448;-75
2023/08/28 09:42:06;;;;;;;13.60;13.00;;;20.10;99.90;;;;;;4956106;28;20456;-75
2023/08/28 09:44:34;;;;;;;13.70;13.07;;;20.20;99.90;;;;;;4956058;28;20515;-75
2023/08/28 09:47:01;;;;;;;13.10;12.50;;;20.20;99.90;;;;;;4955877;28;20458;-76
2023/08/28 09:49:29;;;;;;;12.47;12.03;;;19.90;99.90;;;;;;4955959;28;20452;-76
2023/08/28 09:51:58;;;;;;;14.17;13.47;;;20.10;99.90;;;;;;4955883;28;20935;-75
2023/08/28 09:54:25;;;;;;;12.43;11.97;;;20.10;99.90;;;;;;4955884;28;20463;-75
2023/08/28 09:56:52;;;;;;;12.20;11.70;;;20.20;99.90;;;;;;4955605;28;20729;-74
2023/08/28 09:59:20;;;;;;;12.80;12.20;;;20.40;99.90;;;;;;4955647;28;20467;-75
2023/08/28 10:01:47;;;;;;;12.70;12.20;;;20.50;99.90;;;;;;4955608;28;20455;-75
2023/08/28 10:04:15;;;;;;;12.13;11.63;;;20.70;99.90;;;;;;4955409;28;20495;-75
2023/08/28 10:06:47;;;;;;;12.57;12.00;;;21.40;99.90;;;;;;4955488;28;20448;-75
2023/08/28 10:09:18;;;;;;;12.50;11.90;;;22.00;99.90;;;;;;4955455;28;20452;-76
2023/08/28 10:11:46;;;;;;;13.13;12.63;;;22.50;99.90;;;;;;4955576;28;20460;-76
2023/08/28 10:14:13;;;;;;;12.10;11.50;;;22.20;99.90;;;;;;4955492;28;20503;-76
2023/08/28 10:16:45;;;;;;;12.43;11.73;;;21.90;99.90;;;;;;4954992;28;20580;-76
2023/08/28 10:19:17;;;;;;;12.47;12.07;;;21.80;99.90;;;;;;4955262;28;20997;-76
2023/08/28 10:21:46;;;;;;;12.60;12.03;;;22.80;99.90;;;;;;4955427;28;20452;-76
2023/08/28 10:24:14;;;;;;;12.60;12.10;;;22.90;99.40;;;;;;4955078;28;20495;-76
2023/08/28 10:26:43;;;;;;;12.80;12.10;;;22.20;99.90;;;;;;4955322;28;20815;-76
2023/08/28 10:29:11;;;;;;;12.33;11.83;;;21.70;99.90;;;;;;4955094;28;20452;-76
2023/08/28 10:31:38;;;;;;;12.03;11.33;;;21.80;99.90;;;;;;4954940;28;20484;-76
2023/08/28 10:34:09;;;;;;;13.10;12.50;;;21.70;99.90;;;;;;4954868;28;20846;-76
2023/08/28 10:36:37;;;;;;;13.33;12.70;;;22.00;99.90;;;;;;4955087;28;20456;-76
2023/08/28 10:39:04;;;;;;;12.17;11.77;;;21.50;99.90;;;;;;4953849;28;20453;-76
2023/08/28 10:41:32;;;;;;;12.23;11.83;;;21.70;99.90;;;;;;4955042;28;20449;-76
2023/08/28 10:44:03;;;;;;;12.93;12.33;;;22.00;99.90;;;;;;4954992;28;20460;-75
2023/08/28 10:46:30;;;;;;;12.20;11.70;;;22.00;99.90;;;;;;4954971;28;20463;-75
2023/08/28 10:48:58;;;;;;;12.67;12.20;;;22.20;99.90;;;;;;4954871;28;20449;-75
2023/08/28 10:51:31;;;;;;;11.80;11.30;;;21.70;99.90;;;;;;4954787;28;20449;-75
2023/08/28 10:54:01;;;;;;;12.57;11.87;;;21.80;99.90;;;;;;4955007;28;20527;-75
2023/08/28 10:56:32;;;;;;;12.80;12.30;;;21.90;99.90;;;;;;4954914;28;20491;-75
2023/08/28 10:59:23;;;;;;;12.50;12.00;;;21.90;99.90;;;;;;4954900;28;20484;-76
2023/08/28 11:01:54;;;;;;;11.93;11.40;;;21.60;99.90;;;;;;4954718;28;20538;-77
2023/08/28 11:04:22;;;;;;;11.73;11.33;;;22.10;99.90;;;;;;4954425;28;21037;-76
2023/08/28 11:06:51;;;;;;;11.70;11.30;;;22.30;99.90;;;;;;4954440;28;20452;-76
2023/08/28 11:09:40;;;;;;;12.17;11.47;;;22.20;99.60;;;;;;4954429;28;20456;-75
2023/08/28 11:12:28;;;;;;;11.90;11.50;;;22.10;99.90;;;;;;4954253;28;20457;-76
2023/08/28 11:14:59;;;;;;;12.43;11.73;;;22.30;99.30;;;;;;4954509;28;20508;-75
2023/08/28 11:17:26;;;;;;;11.50;11.10;;;21.90;99.90;;;;;;4954358;28;20480;-75
2023/08/28 11:20:03;;;;;;;11.73;11.33;;;21.70;99.90;;;;;;4954259;28;20456;-75
2023/08/28 11:22:32;;;;;;;13.57;12.87;;;21.60;99.90;;;;;;4954341;28;20452;-75
2023/08/28 11:25:00;;;;;;;12.23;11.80;;;21.40;99.90;;;;;;4954322;28;20496;-74
2023/08/28 11:27:43;;;;;;;12.30;11.90;;;21.30;99.90;;;;;;4954160;28;20978;-75
2023/08/28 11:30:11;;;;;;;12.47;11.77;;;21.50;99.90;;;;;;4953911;28;20479;-75
2023/08/28 11:32:39;;;;;;;11.90;11.40;;;21.20;99.90;;;;;;4954007;28;20479;-75
2023/08/28 11:35:08;;;;;;;12.40;11.90;;;21.30;99.90;;;;;;4954039;28;20480;-75
2023/08/28 11:37:38;;;;;;;12.87;12.13;;;21.20;99.90;;;;;;4953921;28;20475;-75
2023/08/28 11:40:07;;;;;;;12.00;11.40;;;21.00;99.90;;;;;;4953852;28;20455;-74
2023/08/28 11:42:35;;;;;;;12.40;12.00;;;21.10;99.90;;;;;;4954038;28;20452;-75
2023/08/28 11:45:04;;;;;;;12.07;11.67;;;20.90;99.90;;;;;;4953769;28;20831;-75
2023/08/28 11:47:32;;;;;;;12.37;11.87;;;20.80;99.90;;;;;;4953762;28;20456;-75
2023/08/28 11:50:00;;;;;;;12.40;12.00;;;21.20;99.90;;;;;;4953492;28;20792;-75
2023/08/28 11:52:27;;;;;;;12.50;12.00;;;21.20;99.90;;;;;;4953689;28;20452;-75
2023/08/28 11:55:03;;;;;;;13.03;12.53;;;21.30;99.90;;;;;;4953450;28;20459;-76
2023/08/28 11:57:30;;;;;;;12.33;11.90;;;21.20;99.90;;;;;;4953672;28;20652;-76
2023/08/28 11:59:59;;;;;;;12.47;11.90;;;21.10;99.90;;;;;;4953845;28;20452;-75
2023/08/28 12:02:27;;;;;;;12.40;11.80;;;21.30;99.90;;;;;;4953531;28;20488;-75
2023/08/28 12:04:54;;;;;;;12.27;11.87;;;21.30;99.90;;;;;;4953274;28;20488;-75
2023/08/28 12:07:22;;;;;;;12.40;11.93;;;21.20;99.90;;;;;;4953184;28;20515;-75
2023/08/28 12:09:50;;;;;;;11.23;10.83;;;21.00;99.90;;;;;;4953266;28;20830;-75
2023/08/28 12:12:19;;;;;;;12.80;11.80;;;21.00;99.90;;;;;;4953283;28;20449;-75
2023/08/28 12:14:48;;;;;;;12.40;11.90;;;21.00;99.90;;;;;;4953317;28;20833;-75
2023/08/28 12:17:15;;;;;;;12.40;11.90;;;20.80;99.90;;;;;;4953368;28;20476;-76
2023/08/28 12:19:42;;;;;;;12.20;11.60;;;20.70;99.90;;;;;;4953288;28;20449;-75
2023/08/28 12:22:11;;;;;;;12.23;11.50;;;20.30;99.90;;;;;;4953022;28;20452;-75
2023/08/28 12:24:42;;;;;;;12.17;11.50;;;20.10;99.90;;;;;;4953031;28;20487;-75
2023/08/28 12:27:09;;;;;;;12.27;11.70;;;20.00;99.90;;;;;;4953163;28;20459;-74
2023/08/28 12:29:37;;;;;;;12.87;12.37;;;19.70;99.90;;;;;;4953040;28;20440;-75
2023/08/28 12:32:06;;;;;;;12.53;11.90;;;19.60;99.90;;;;;;4952591;28;20485;-75
2023/08/28 12:34:33;;;;;;;12.20;11.70;;;19.40;99.90;;;;;;4952922;28;20479;-75
2023/08/28 12:37:07;;;;;;;12.77;11.90;;;19.40;99.90;;;;;;4940781;28;20472;-75
2023/08/28 12:39:34;;;;;;;12.27;11.80;;;19.30;99.90;;;;;;4941589;28;20454;-74